Time;durP1;ratioP1;P1;durP2;ratioP2;P2;SDS_P1;SDS_P2;PMS_P1;PMS_P2;Temp;Humidity;BMP_temperature;BMP_pressure;BME280_temperature;BME280_humidity;BME280_pressure;Samples;Min_cycle;Max_cycle;Signal;HPM_P1;HPM_P2
2023/04/07 00:02:05;;;;;;;;;;;6.90;99.90;;;;;;5053498;28;19924;-62
2023/04/07 00:04:32;;;;;;;;;;;7.00;99.90;;;;;;5051352;28;19927;-61
2023/04/07 00:06:58;;;;;;;;;;;6.90;99.90;;;;;;5053285;28;19920;-61
2023/04/07 00:09:25;;;;;;;;;;;6.90;99.90;;;;;;5047894;28;19921;-61
2023/04/07 00:11:51;;;;;;;;;;;7.00;99.90;;;;;;5053419;28;19990;-61
2023/04/07 00:14:19;;;;;;;;;;;7.00;99.90;;;;;;5049563;28;20035;-60
2023/04/07 00:16:46;;;;;;;;;;;7.00;99.90;;;;;;5052456;28;20399;-61
2023/04/07 00:19:12;;;;;;;;;;;7.00;99.90;;;;;;5051348;28;19925;-61
2023/04/07 00:21:39;;;;;;;;;;;7.00;99.90;;;;;;5053337;28;19921;-59
2023/04/07 00:24:06;;;;;;;;;;;7.00;99.90;;;;;;5049482;28;19921;-60
2023/04/07 00:26:33;;;;;;;;;;;7.00;99.90;;;;;;5050990;28;20341;-60
2023/04/07 00:28:59;;;;;;;;;;;7.00;99.90;;;;;;5050724;28;19971;-60
2023/04/07 00:31:27;;;;;;;;;;;7.00;99.90;;;;;;5050500;28;19974;-61
2023/04/07 00:33:54;;;;;;;;;;;7.00;99.90;;;;;;5051530;28;19920;-60
2023/04/07 00:36:21;;;;;;;;;;;7.10;99.90;;;;;;5052596;28;20011;-60
2023/04/07 00:38:47;;;;;;;;;;;7.10;99.90;;;;;;5051645;28;19921;-59
2023/04/07 00:41:14;;;;;;;;;;;7.10;99.90;;;;;;5052317;28;20378;-60
2023/04/07 00:43:41;;;;;;;;;;;7.10;99.90;;;;;;5051825;28;20404;-60
2023/04/07 00:46:07;;;;;;;;;;;7.10;99.90;;;;;;5048450;28;19966;-61
2023/04/07 00:48:36;;;;;;;;;;;7.10;99.90;;;;;;5052723;28;19920;-60
2023/04/07 00:51:03;;;;;;;;;;;7.10;99.90;;;;;;5051229;28;19921;-61
2023/04/07 00:53:30;;;;;;;;;;;7.10;99.90;;;;;;5052712;28;20287;-59
2023/04/07 00:55:56;;;;;;;;;;;7.10;99.90;;;;;;5046400;28;19924;-60
2023/04/07 00:58:22;;;;;;;;;;;7.10;99.90;;;;;;5048815;28;19921;-61
2023/04/07 01:00:51;;;;;;;;;;;7.10;99.90;;;;;;5047955;28;19920;-61
2023/04/07 01:03:20;;;;;;;;;;;7.10;99.90;;;;;;5052302;28;19974;-60
2023/04/07 01:05:52;;;;;;;;;;;7.10;99.90;;;;;;5045397;28;19925;-60
2023/04/07 01:08:21;;;;;;;;;;;7.10;99.90;;;;;;5052067;28;19920;-60
2023/04/07 01:10:49;;;;;;;;;;;7.10;99.90;;;;;;5051828;28;19921;-62
2023/04/07 01:13:22;;;;;;;;;;;7.10;99.90;;;;;;5052390;28;20322;-61
2023/04/07 01:15:50;;;;;;;;;;;7.10;99.90;;;;;;5045524;28;19921;-59
2023/04/07 01:18:21;;;;;;;;;;;7.10;99.90;;;;;;5051756;28;19920;-61
2023/04/07 01:20:50;;;;;;;;;;;7.10;99.90;;;;;;5048551;28;20028;-60
2023/04/07 01:23:21;;;;;;;;;;;7.10;99.90;;;;;;5053091;28;19920;-61
2023/04/07 01:25:59;;;;;;;;;;;7.10;99.90;;;;;;5052225;28;19967;-61
2023/04/07 01:28:41;;;;;;;;;;;7.10;99.90;;;;;;5045652;28;19921;-61
2023/04/07 01:31:09;;;;;;;;;;;7.10;99.90;;;;;;5047584;28;19921;-61
2023/04/07 01:33:36;;;;;;;;;;;7.20;99.90;;;;;;5052297;28;19951;-61
2023/04/07 01:36:04;;;;;;;;;;;7.10;99.90;;;;;;5048785;28;19925;-60
2023/04/07 01:38:31;;;;;;;;;;;7.10;99.90;;;;;;5052208;28;19928;-59
2023/04/07 01:40:58;;;;;;;;;;;7.10;99.90;;;;;;5048895;28;19921;-60
2023/04/07 01:43:25;;;;;;;;;;;7.20;99.90;;;;;;5051969;28;19927;-61
2023/04/07 01:45:52;;;;;;;;;;;7.20;99.90;;;;;;5049034;28;19927;-61
2023/04/07 01:48:20;;;;;;;;;;;7.30;99.90;;;;;;5052515;28;19943;-62
2023/04/07 01:50:47;;;;;;;;;;;7.30;99.90;;;;;;5046670;28;19924;-61
2023/04/07 01:53:15;;;;;;;;;;;7.20;99.90;;;;;;5051913;28;19975;-61
2023/04/07 01:55:42;;;;;;;;;;;7.30;99.90;;;;;;5048555;28;19921;-60
2023/04/07 01:58:08;;;;;;;;;;;7.20;99.90;;;;;;5055300;28;19966;-60
2023/04/07 02:00:35;;;;;;;;;;;7.20;99.90;;;;;;5047913;28;19920;-60
2023/04/07 02:03:06;;;;;;;;;;;7.20;99.90;;;;;;5055460;28;19924;-61
2023/04/07 02:05:35;;;;;;;;;;;7.20;99.90;;;;;;5051456;28;19927;-61
2023/04/07 02:08:04;;;;;;;;;;;7.20;99.90;;;;;;5055291;28;19925;-59
2023/04/07 02:10:33;;;;;;;;;;;7.20;99.90;;;;;;5053256;28;19921;-62
2023/04/07 02:13:00;;;;;;;;;;;7.20;99.90;;;;;;5055613;28;19925;-59
2023/04/07 02:15:27;;;;;;;;;;;7.20;99.90;;;;;;5051481;28;19974;-59
2023/04/07 02:17:54;;;;;;;;;;;7.20;99.90;;;;;;5055367;28;19993;-56
2023/04/07 02:20:21;;;;;;;;;;;7.20;99.90;;;;;;5052808;28;19921;-60
2023/04/07 02:22:49;;;;;;;;;;;7.20;99.90;;;;;;5055208;28;19921;-59
2023/04/07 02:25:20;;;;;;;;;;;7.30;99.90;;;;;;5049238;28;19921;-61
2023/04/07 02:27:47;;;;;;;;;;;7.30;99.90;;;;;;5051684;28;20054;-61
2023/04/07 02:30:14;;;;;;;;;;;7.20;99.90;;;;;;5050530;28;20448;-59
2023/04/07 02:32:40;;;;;;;;;;;7.20;99.90;;;;;;5055315;28;19924;-59
2023/04/07 02:35:07;;;;;;;;;;;7.20;99.90;;;;;;5053083;28;20019;-61
2023/04/07 02:37:34;;;;;;;;;;;7.20;99.90;;;;;;5054639;28;19921;-60
2023/04/07 02:40:02;;;;;;;;;;;7.20;99.90;;;;;;5051155;28;19928;-60
2023/04/07 02:42:28;;;;;;;;;;;7.20;99.90;;;;;;5055193;28;19968;-59
2023/04/07 02:44:55;;;;;;;;;;;7.20;99.90;;;;;;5050453;28;19967;-61
2023/04/07 02:47:21;;;;;;;;;;;7.30;99.90;;;;;;5046401;28;19927;-61
2023/04/07 02:49:48;;;;;;;;;;;7.30;99.90;;;;;;5051004;28;20383;-61
2023/04/07 02:52:15;;;;;;;;;;;7.30;99.90;;;;;;5051380;28;19920;-60
2023/04/07 02:54:41;;;;;;;;;;;7.30;99.90;;;;;;5050300;28;19944;-61
2023/04/07 02:57:09;;;;;;;;;;;7.30;99.90;;;;;;5050882;28;20329;-61
2023/04/07 02:59:36;;;;;;;;;;;7.40;99.90;;;;;;5050491;28;19920;-59
2023/04/07 03:02:02;;;;;;;;;;;7.40;99.90;;;;;;5054591;28;19921;-58
2023/04/07 03:04:29;;;;;;;;;;;7.40;99.90;;;;;;5049361;28;20338;-59
2023/04/07 03:06:56;;;;;;;;;;;7.50;99.90;;;;;;5053122;28;19921;-58
2023/04/07 03:09:22;;;;;;;;;;;7.50;99.90;;;;;;5053275;28;19925;-58
2023/04/07 03:11:49;;;;;;;;;;;7.50;99.90;;;;;;5056035;28;19928;-62
2023/04/07 03:14:17;;;;;;;;;;;7.60;99.90;;;;;;5055103;28;20370;-61
2023/04/07 03:16:43;;;;;;;;;;;7.60;99.90;;;;;;5050872;28;19925;-57
2023/04/07 03:19:10;;;;;;;;;;;7.60;99.90;;;;;;5053283;28;19960;-61
2023/04/07 03:21:37;;;;;;;;;;;7.70;99.90;;;;;;5051180;28;19920;-62
2023/04/07 03:24:04;;;;;;;;;;;7.70;99.90;;;;;;5054082;28;19928;-61
2023/04/07 03:26:30;;;;;;;;;;;7.70;99.90;;;;;;5052641;28;20015;-61
2023/04/07 03:28:57;;;;;;;;;;;7.70;99.90;;;;;;5049653;28;19920;-61
2023/04/07 03:31:25;;;;;;;;;;;7.70;99.90;;;;;;5050534;28;19925;-62
2023/04/07 03:33:51;;;;;;;;;;;7.80;99.90;;;;;;5053248;28;19921;-62
2023/04/07 03:36:18;;;;;;;;;;;7.80;99.90;;;;;;5046878;28;19921;-61
2023/04/07 03:38:46;;;;;;;;;;;7.80;99.90;;;;;;5054635;28;19927;-61
2023/04/07 03:41:13;;;;;;;;;;;7.80;99.90;;;;;;5054658;28;19970;-62
2023/04/07 03:43:40;;;;;;;;;;;7.80;99.90;;;;;;5049683;28;19920;-60
2023/04/07 03:46:06;;;;;;;;;;;7.70;99.90;;;;;;5049219;28;19947;-60
2023/04/07 03:48:34;;;;;;;;;;;7.70;99.90;;;;;;5050158;28;19920;-61
2023/04/07 03:51:01;;;;;;;;;;;7.80;99.90;;;;;;5053459;28;19936;-61
2023/04/07 03:53:27;;;;;;;;;;;7.80;99.90;;;;;;5051608;28;20010;-61
2023/04/07 03:55:54;;;;;;;;;;;7.80;99.90;;;;;;5046924;28;19940;-60
2023/04/07 03:58:20;;;;;;;;;;;7.80;99.90;;;;;;5050352;28;19975;-60
2023/04/07 04:00:47;;;;;;;;;;;7.80;99.90;;;;;;5048674;28;19936;-60
2023/04/07 04:03:13;;;;;;;;;;;7.80;99.90;;;;;;5049647;28;19924;-61
2023/04/07 04:05:41;;;;;;;;;;;7.80;99.90;;;;;;5052584;28;19982;-59
2023/04/07 04:08:08;;;;;;;;;;;7.80;99.90;;;;;;5049508;28;19921;-60
2023/04/07 04:10:34;;;;;;;;;;;7.80;99.90;;;;;;5053344;28;19924;-60
2023/04/07 04:13:02;;;;;;;;;;;7.80;99.90;;;;;;5049332;28;19920;-60
2023/04/07 04:15:29;;;;;;;;;;;7.70;99.90;;;;;;5044961;28;19921;-58
2023/04/07 04:17:55;;;;;;;;;;;7.80;99.90;;;;;;5053619;28;19927;-59
2023/04/07 04:20:22;;;;;;;;;;;7.80;99.90;;;;;;5052958;28;20371;-61
2023/04/07 04:22:50;;;;;;;;;;;7.80;99.90;;;;;;5053321;28;19920;-61
2023/04/07 04:25:17;;;;;;;;;;;7.80;99.90;;;;;;5044822;28;19925;-60
2023/04/07 04:27:43;;;;;;;;;;;7.80;99.90;;;;;;5051924;28;19921;-62
2023/04/07 04:30:10;;;;;;;;;;;7.80;99.90;;;;;;5048362;28;19966;-61
2023/04/07 04:32:37;;;;;;;;;;;7.80;99.90;;;;;;5053062;28;19932;-59
2023/04/07 04:35:03;;;;;;;;;;;7.80;99.90;;;;;;5050232;28;19925;-60
2023/04/07 04:37:31;;;;;;;;;;;7.80;99.90;;;;;;5052640;28;19921;-60
2023/04/07 04:39:59;;;;;;;;;;;7.80;99.90;;;;;;5048138;28;19928;-61
2023/04/07 04:42:26;;;;;;;;;;;7.80;99.90;;;;;;5053473;28;19975;-61
2023/04/07 04:44:53;;;;;;;;;;;7.80;99.90;;;;;;5049295;28;19920;-60
2023/04/07 04:47:19;;;;;;;;;;;7.80;99.90;;;;;;5052541;28;19921;-61
2023/04/07 04:49:46;;;;;;;;;;;7.80;99.90;;;;;;5050299;28;19921;-58
2023/04/07 04:52:12;;;;;;;;;;;7.80;99.90;;;;;;5052729;28;19925;-61
2023/04/07 04:54:39;;;;;;;;;;;7.80;99.90;;;;;;5044608;28;19921;-62
2023/04/07 04:57:06;;;;;;;;;;;7.80;99.90;;;;;;5050745;28;19928;-61
2023/04/07 04:59:33;;;;;;;;;;;7.80;99.90;;;;;;5047877;28;19921;-61
2023/04/07 05:02:00;;;;;;;;;;;7.80;99.90;;;;;;5051734;28;19924;-60
2023/04/07 05:04:27;;;;;;;;;;;7.80;99.90;;;;;;5048281;28;19927;-62
2023/04/07 05:06:53;;;;;;;;;;;7.80;99.90;;;;;;5051916;28;20401;-60
2023/04/07 05:09:20;;;;;;;;;;;7.80;99.90;;;;;;5044834;28;19921;-61
2023/04/07 05:11:46;;;;;;;;;;;7.80;99.90;;;;;;5052534;28;19943;-61
2023/04/07 05:14:14;;;;;;;;;;;7.70;99.90;;;;;;5041721;28;19928;-62
2023/04/07 05:16:41;;;;;;;;;;;7.80;99.90;;;;;;5051426;28;19925;-60
2023/04/07 05:19:07;;;;;;;;;;;7.80;99.90;;;;;;5048773;28;19974;-61
2023/04/07 05:21:34;;;;;;;;;;;7.80;99.90;;;;;;5052120;28;20448;-59
2023/04/07 05:24:01;;;;;;;;;;;7.80;99.90;;;;;;5050197;28;19929;-61
2023/04/07 05:26:27;;;;;;;;;;;7.80;99.90;;;;;;5049075;28;19920;-61
2023/04/07 05:28:54;;;;;;;;;;;7.80;99.90;;;;;;5044920;28;19924;-61
2023/04/07 05:31:22;;;;;;;;;;;7.80;99.90;;;;;;5048514;28;19920;-61
2023/04/07 05:33:48;;;;;;;;;;;7.70;99.90;;;;;;5046442;28;19921;-59
2023/04/07 05:36:15;;;;;;;;;;;7.70;99.90;;;;;;5051677;28;20380;-61
2023/04/07 05:38:42;;;;;;;;;;;7.70;99.90;;;;;;5047664;28;19983;-61
2023/04/07 05:41:08;;;;;;;;;;;7.80;99.90;;;;;;5047256;28;19947;-61
2023/04/07 05:43:35;;;;;;;;;;;7.70;99.90;;;;;;5047849;28;20327;-60
2023/04/07 05:46:01;;;;;;;;;;;7.80;99.90;;;;;;5040010;28;19921;-61
2023/04/07 05:48:29;;;;;;;;;;;7.70;99.90;;;;;;5051729;28;19974;-60
2023/04/07 05:50:56;;;;;;;;;;;7.70;99.90;;;;;;5051369;28;19929;-61
2023/04/07 05:53:22;;;;;;;;;;;7.80;99.90;;;;;;5051780;28;19920;-62
2023/04/07 05:55:49;;;;;;;;;;;7.80;99.90;;;;;;5047460;28;19924;-60
2023/04/07 05:58:15;;;;;;;;;;;7.80;99.90;;;;;;5051538;28;20395;-59
2023/04/07 06:00:42;;;;;;;;;;;7.80;99.90;;;;;;5047823;28;19974;-61
2023/04/07 06:03:08;;;;;;;;;;;7.80;99.90;;;;;;5051572;28;19971;-60
2023/04/07 06:05:36;;;;;;;;;;;7.70;99.90;;;;;;5047946;28;20536;-60
2023/04/07 06:08:03;;;;;;;;;;;7.70;99.90;;;;;;5051685;28;19925;-59
2023/04/07 06:10:29;;;;;;;;;;;7.70;99.90;;;;;;5046247;28;20283;-60
2023/04/07 06:12:55;;;;;;;;;;;7.70;99.90;;;;;;5051762;28;19950;-61
2023/04/07 06:15:22;;;;;;;;;;;7.60;99.90;;;;;;5046580;28;20419;-61
2023/04/07 06:17:49;;;;;;;;;;;7.60;99.90;;;;;;5051110;28;20382;-61
2023/04/07 06:20:15;;;;;;;;;;;7.60;99.90;;;;;;5045362;28;20045;-60
2023/04/07 06:22:43;;;;;;;;;;;7.60;99.90;;;;;;5051557;28;19921;-60
2023/04/07 06:25:10;;;;;;;;;;;7.60;99.90;;;;;;5047096;28;19920;-59
2023/04/07 06:27:36;;;;;;;;;;;7.60;99.90;;;;;;5051431;28;19924;-59
2023/04/07 06:30:03;;;;;;;;;;;7.60;99.90;;;;;;5047211;28;19928;-61
2023/04/07 06:32:29;;;;;;;;;;;7.70;99.90;;;;;;5051564;28;20342;-60
2023/04/07 06:34:56;;;;;;;;;;;7.70;99.90;;;;;;5048138;28;19925;-59
2023/04/07 06:37:23;;;;;;;;;;;7.70;99.90;;;;;;5051404;28;19920;-57
2023/04/07 06:39:52;;;;;;;;;;;7.70;99.90;;;;;;5047035;28;19921;-61
2023/04/07 06:42:18;;;;;;;;;;;7.70;99.90;;;;;;5053955;28;19947;-59
2023/04/07 06:44:44;;;;;;;;;;;7.70;99.90;;;;;;5051094;28;19921;-58
2023/04/07 06:47:11;;;;;;;;;;;7.70;99.90;;;;;;5054809;28;19990;-59
2023/04/07 06:49:37;;;;;;;;;;;7.70;99.90;;;;;;5054526;28;19967;-61
2023/04/07 06:52:04;;;;;;;;;;;7.70;99.90;;;;;;5058795;28;19920;-62
2023/04/07 06:54:31;;;;;;;;;;;7.70;99.90;;;;;;5051270;28;19925;-58
2023/04/07 06:57:00;;;;;;;;;;;7.70;99.90;;;;;;5055435;28;19975;-62
2023/04/07 06:59:26;;;;;;;;;;;7.70;99.90;;;;;;5055623;28;19921;-59
2023/04/07 07:01:53;;;;;;;;;;;7.70;99.90;;;;;;5046756;28;19921;-58
2023/04/07 07:04:19;;;;;;;;;;;7.70;99.90;;;;;;5047200;28;19921;-62
2023/04/07 07:06:46;;;;;;;;;;;7.80;99.90;;;;;;5050435;28;19925;-60
2023/04/07 07:09:12;;;;;;;;;;;7.80;99.90;;;;;;5051330;28;19929;-61
2023/04/07 07:11:40;;;;;;;;;;;7.80;99.90;;;;;;5048612;28;20383;-59
2023/04/07 07:14:07;;;;;;;;;;;7.80;99.90;;;;;;5052232;28;20417;-58
2023/04/07 07:16:34;;;;;;;;;;;7.80;99.90;;;;;;5050999;28;19921;-61
2023/04/07 07:19:00;;;;;;;;;;;7.80;99.90;;;;;;5052155;28;19924;-61
2023/04/07 07:21:27;;;;;;;;;;;7.80;99.90;;;;;;5053684;28;20429;-59
2023/04/07 07:23:53;;;;;;;;;;;7.80;99.90;;;;;;5053825;28;19920;-59
2023/04/07 07:26:20;;;;;;;;;;;7.70;99.90;;;;;;5049358;28;19928;-58
2023/04/07 07:28:47;;;;;;;;;;;7.70;99.90;;;;;;5050075;28;20363;-61
2023/04/07 07:31:16;;;;;;;;;;;7.70;99.90;;;;;;5049663;28;20272;-61
2023/04/07 07:33:42;;;;;;;;;;;7.70;99.90;;;;;;5050825;28;20342;-61
2023/04/07 07:36:09;;;;;;;;;;;7.70;99.90;;;;;;5053537;28;19920;-62
2023/04/07 07:38:36;;;;;;;;;;;7.70;99.90;;;;;;5048865;28;20341;-61
2023/04/07 07:41:02;;;;;;;;;;;7.70;99.90;;;;;;5053854;28;19921;-58
2023/04/07 07:43:29;;;;;;;;;;;7.70;99.90;;;;;;5046273;28;20302;-61
2023/04/07 07:45:56;;;;;;;;;;;7.70;99.90;;;;;;5049499;28;20039;-62
2023/04/07 07:48:24;;;;;;;;;;;7.60;99.90;;;;;;5049105;28;19947;-62
2023/04/07 07:50:51;;;;;;;;;;;7.70;99.90;;;;;;5053377;28;19960;-61
2023/04/07 07:53:18;;;;;;;;;;;7.70;99.90;;;;;;5052221;28;19925;-60
2023/04/07 07:55:45;;;;;;;;;;;7.80;99.90;;;;;;5049045;28;20268;-60
2023/04/07 07:58:11;;;;;;;;;;;7.70;99.90;;;;;;5045971;28;20292;-56
2023/04/07 08:00:38;;;;;;;;;;;7.70;99.90;;;;;;5048572;28;19920;-59
2023/04/07 08:03:05;;;;;;;;;;;7.80;99.90;;;;;;5048415;28;19924;-60
2023/04/07 08:05:32;;;;;;;;;;;7.80;99.90;;;;;;5053190;28;19924;-61
2023/04/07 08:08:00;;;;;;;;;;;7.80;99.90;;;;;;5050349;28;19966;-61
2023/04/07 08:10:26;;;;;;;;;;;7.80;99.90;;;;;;5053634;28;19924;-61
2023/04/07 08:12:53;;;;;;;;;;;7.80;99.90;;;;;;5048859;28;19921;-63
2023/04/07 08:15:26;;;;;;;;;;;7.80;99.90;;;;;;5042802;28;19928;-59
2023/04/07 08:17:52;;;;;;;;;;;7.80;99.90;;;;;;5054759;28;19934;-59
2023/04/07 08:20:19;;;;;;;;;;;7.90;99.90;;;;;;5052585;28;19924;-62
2023/04/07 08:22:48;;;;;;;;;;;7.90;99.90;;;;;;5051398;28;19929;-65
2023/04/07 08:25:15;;;;;;;;;;;7.90;99.90;;;;;;5047669;28;19920;-64
2023/04/07 08:27:41;;;;;;;;;;;7.90;99.90;;;;;;5052818;28;19927;-62
2023/04/07 08:30:08;;;;;;;;;;;8.00;99.90;;;;;;5047747;28;20367;-62
2023/04/07 08:32:35;;;;;;;;;;;8.00;99.90;;;;;;5052069;28;19921;-61
2023/04/07 08:35:01;;;;;;;;;;;8.00;99.90;;;;;;5048830;28;19927;-60
2023/04/07 08:37:28;;;;;;;;;;;8.00;99.90;;;;;;5051961;28;20313;-69
2023/04/07 08:39:56;;;;;;;;;;;8.00;99.90;;;;;;5045557;28;20300;-62
2023/04/07 08:42:26;;;;;;;;;;;8.00;99.90;;;;;;5043697;28;19920;-70
2023/04/07 08:44:53;;;;;;;;;;;8.10;99.90;;;;;;5045602;28;19927;-60
2023/04/07 08:47:21;;;;;;;;;;;8.10;99.90;;;;;;5042343;28;20423;-58
2023/04/07 08:49:50;;;;;;;;;;;8.10;99.90;;;;;;5045513;28;19975;-59
2023/04/07 08:52:18;;;;;;;;;;;8.20;99.90;;;;;;5052114;28;19928;-62
2023/04/07 08:54:44;;;;;;;;;;;8.10;99.90;;;;;;5047278;28;19921;-59
2023/04/07 08:57:13;;;;;;;;;;;8.20;99.90;;;;;;5052095;28;19921;-58
2023/04/07 08:59:42;;;;;;;;;;;8.20;99.90;;;;;;5047762;28;19948;-59
2023/04/07 09:02:08;;;;;;;;;;;8.20;99.90;;;;;;5051491;28;20004;-59
2023/04/07 09:04:35;;;;;;;;;;;8.20;99.90;;;;;;5048307;28;19974;-58
2023/04/07 09:07:01;;;;;;;;;;;8.20;99.90;;;;;;5051407;28;19920;-60
2023/04/07 09:09:29;;;;;;;;;;;8.20;99.90;;;;;;5048004;28;19975;-60
2023/04/07 09:11:55;;;;;;;;;;;8.20;99.90;;;;;;5050936;28;19971;-62
2023/04/07 09:14:23;;;;;;;;;;;8.20;99.90;;;;;;5047789;28;19920;-60
2023/04/07 09:16:49;;;;;;;;;;;8.20;99.90;;;;;;5049956;28;20429;-61
2023/04/07 09:19:16;;;;;;;;;;;8.20;99.90;;;;;;5049317;28;19925;-62
2023/04/07 09:21:49;;;;;;;;;;;8.30;99.90;;;;;;5051547;28;19924;-61
2023/04/07 09:24:20;;;;;;;;;;;8.30;99.90;;;;;;5045736;28;19956;-62
2023/04/07 09:26:47;;;;;;;;;;;8.20;99.90;;;;;;5049740;28;19924;-59
2023/04/07 09:29:18;;;;;;;;;;;8.30;99.90;;;;;;5049060;28;19921;-64
2023/04/07 09:31:46;;;;;;;;;;;8.40;99.90;;;;;;5051261;28;19979;-61
2023/04/07 09:34:23;;;;;;;;;;;8.40;99.90;;;;;;5044442;28;20011;-60
2023/04/07 09:36:50;;;;;;;;;;;8.40;99.90;;;;;;5050275;28;19921;-62
2023/04/07 09:39:16;;;;;;;;;;;8.40;99.90;;;;;;5047807;28;19920;-60
2023/04/07 09:41:43;;;;;;;;;;;8.40;99.90;;;;;;5049489;28;19920;-62
2023/04/07 09:44:10;;;;;;;;;;;8.40;99.90;;;;;;5045932;28;20310;-64
2023/04/07 09:46:47;;;;;;;;;;;8.40;99.90;;;;;;5048706;28;20379;-61
2023/04/07 09:49:15;;;;;;;;;;;8.30;99.90;;;;;;5045405;28;19920;-57
2023/04/07 09:51:52;;;;;;;;;;;8.40;99.90;;;;;;5048641;28;19975;-60
2023/04/07 09:54:31;;;;;;;;;;;8.50;99.90;;;;;;5045039;28;19924;-63
2023/04/07 09:56:58;;;;;;;;;;;8.60;99.90;;;;;;5049855;28;19921;-62
2023/04/07 09:59:26;;;;;;;;;;;8.70;99.90;;;;;;5047011;28;19921;-61
2023/04/07 10:01:53;;;;;;;;;;;8.70;99.90;;;;;;5050243;28;20342;-61
2023/04/07 10:04:21;;;;;;;;;;;8.80;99.90;;;;;;5049513;28;20429;-61
2023/04/07 10:06:47;;;;;;;;;;;8.80;99.90;;;;;;5050429;28;19974;-62
2023/04/07 10:09:14;;;;;;;;;;;8.70;99.90;;;;;;5048138;28;20384;-60
2023/04/07 10:11:41;;;;;;;;;;;8.70;99.90;;;;;;5047953;28;19970;-61
2023/04/07 10:14:09;;;;;;;;;;;8.70;99.90;;;;;;5041891;28;19935;-64
2023/04/07 10:16:37;;;;;;;;;;;8.60;99.90;;;;;;5045311;28;20011;-64
2023/04/07 10:19:04;;;;;;;;;;;8.70;99.90;;;;;;5052192;28;19921;-62
2023/04/07 10:21:32;;;;;;;;;;;8.50;99.90;;;;;;5052162;28;19967;-61
2023/04/07 10:24:00;;;;;;;;;;;8.60;99.90;;;;;;5054768;28;19920;-61
2023/04/07 10:26:30;;;;;;;;;;;8.60;99.90;;;;;;5047689;28;20362;-61
2023/04/07 10:28:59;;;;;;;;;;;8.60;99.90;;;;;;5057582;28;19983;-63
2023/04/07 10:31:26;;;;;;;;;;;8.60;99.90;;;;;;5050220;28;19921;-60
2023/04/07 10:33:53;;;;;;;;;;;8.60;99.90;;;;;;5054099;28;20015;-67
2023/04/07 10:36:20;;;;;;;;;;;8.70;99.90;;;;;;5050909;28;19921;-66
2023/04/07 10:39:05;;;;;;;;;;;8.90;99.90;;;;;;5054773;28;19931;-66
2023/04/07 10:41:35;;;;;;;;;;;9.00;99.90;;;;;;5050440;28;19932;-66
2023/04/07 10:44:02;;;;;;;;;;;9.10;99.90;;;;;;5050479;28;19921;-67
2023/04/07 10:46:43;;;;;;;;;;;9.20;99.90;;;;;;5050314;28;19967;-66
2023/04/07 10:49:10;;;;;;;;;;;9.30;99.90;;;;;;5048535;28;19929;-60
2023/04/07 10:51:37;;;;;;;;;;;9.30;99.90;;;;;;5053217;28;19951;-64
2023/04/07 10:54:22;;;;;;;;;;;9.30;99.90;;;;;;5053673;28;20261;-62
2023/04/07 10:57:10;;;;;;;;;;;9.10;99.90;;;;;;5051101;28;19921;-63
2023/04/07 10:59:39;;;;;;;;;;;9.00;99.90;;;;;;5048509;28;20450;-62
2023/04/07 11:02:27;;;;;;;;;;;8.90;99.90;;;;;;5049938;28;19947;-62
2023/04/07 11:04:53;;;;;;;;;;;8.80;99.90;;;;;;5037883;28;19975;-60
2023/04/07 11:07:40;;;;;;;;;;;8.80;99.90;;;;;;5053466;28;20330;-60
2023/04/07 11:10:10;;;;;;;;;;;8.70;99.90;;;;;;5048112;28;19933;-59
2023/04/07 11:12:36;;;;;;;;;;;8.70;99.90;;;;;;5054236;28;19920;-62
2023/04/07 11:15:17;;;;;;;;;;;8.70;99.90;;;;;;5053088;28;19925;-65
2023/04/07 11:17:44;;;;;;;;;;;8.80;99.90;;;;;;5051061;28;19981;-61
2023/04/07 11:20:10;;;;;;;;;;;8.80;99.90;;;;;;5045788;28;19920;-60
2023/04/07 11:22:37;;;;;;;;;;;8.80;99.90;;;;;;5052807;28;19928;-59
2023/04/07 11:25:04;;;;;;;;;;;8.80;99.90;;;;;;5047186;28;19929;-58
2023/04/07 11:27:30;;;;;;;;;;;8.90;99.90;;;;;;5052139;28;20034;-59
2023/04/07 11:29:57;;;;;;;;;;;9.00;99.90;;;;;;5045243;28;19991;-61
2023/04/07 11:32:28;;;;;;;;;;;9.00;99.90;;;;;;5053460;28;19920;-61
2023/04/07 11:34:55;;;;;;;;;;;9.00;99.90;;;;;;5047331;28;19927;-62
2023/04/07 11:37:23;;;;;;;;;;;9.00;99.90;;;;;;5052492;28;19920;-60
2023/04/07 11:39:52;;;;;;;;;;;9.00;99.90;;;;;;5047903;28;19925;-61
2023/04/07 11:42:31;;;;;;;;;;;9.00;99.90;;;;;;5053474;28;19974;-61
2023/04/07 11:44:57;;;;;;;;;;;9.00;99.90;;;;;;5048525;28;19970;-61
2023/04/07 11:47:34;;;;;;;;;;;8.90;99.90;;;;;;5044544;28;20374;-61
2023/04/07 11:50:01;;;;;;;;;;;9.00;99.90;;;;;;5049998;28;19943;-61
2023/04/07 11:52:28;;;;;;;;;;;9.00;99.90;;;;;;5053483;28;19928;-61
2023/04/07 11:54:55;;;;;;;;;;;9.00;99.90;;;;;;5047653;28;19921;-61
2023/04/07 11:57:24;;;;;;;;;;;8.90;99.90;;;;;;5048671;28;19921;-60
2023/04/07 11:59:51;;;;;;;;;;;8.90;99.90;;;;;;5045264;28;19920;-60
2023/04/07 12:02:30;;;;;;;;;;;8.80;99.90;;;;;;5052462;28;19974;-61
2023/04/07 12:04:58;;;;;;;;;;;8.80;99.90;;;;;;5047317;28;19925;-60
2023/04/07 12:07:25;;;;;;;;;;;8.80;99.90;;;;;;5048448;28;19925;-62
2023/04/07 12:09:53;;;;;;;;;;;8.80;99.90;;;;;;5050806;28;20008;-60
2023/04/07 12:12:25;;;;;;;;;;;8.80;99.90;;;;;;5049406;28;20374;-60
2023/04/07 12:14:51;;;;;;;;;;;8.80;99.90;;;;;;5044734;28;20349;-61
2023/04/07 12:17:21;;;;;;;;;;;8.70;99.90;;;;;;5052830;28;19947;-61
2023/04/07 12:19:47;;;;;;;;;;;8.70;99.90;;;;;;5053197;28;19925;-60
2023/04/07 12:22:16;;;;;;;;;;;8.60;99.90;;;;;;5051303;28;19921;-60
2023/04/07 12:24:42;;;;;;;;;;;8.60;99.90;;;;;;5047840;28;20273;-61
2023/04/07 12:27:09;;;;;;;;;;;8.60;99.90;;;;;;5052522;28;19920;-61
2023/04/07 12:29:37;;;;;;;;;;;8.70;99.90;;;;;;5047141;28;19975;-69
2023/04/07 12:32:03;;;;;;;;;;;8.70;99.90;;;;;;5052637;28;19971;-57
2023/04/07 12:34:30;;;;;;;;;;;8.70;99.90;;;;;;5047724;28;19928;-62
2023/04/07 12:36:56;;;;;;;;;;;8.80;99.90;;;;;;5051836;28;20272;-62
2023/04/07 12:39:25;;;;;;;;;;;9.10;99.90;;;;;;5047806;28;19928;-63
2023/04/07 12:41:52;;;;;;;;;;;9.20;99.90;;;;;;5044974;28;19968;-65
2023/04/07 12:44:18;;;;;;;;;;;9.20;99.90;;;;;;5050331;28;19924;-67
2023/04/07 12:46:45;;;;;;;;;;;9.20;99.90;;;;;;5047644;28;20295;-64
2023/04/07 12:49:11;;;;;;;;;;;9.30;99.90;;;;;;5048674;28;19921;-64
2023/04/07 12:51:38;;;;;;;;;;;9.30;99.90;;;;;;5051486;28;20490;-63
2023/04/07 12:54:05;;;;;;;;;;;9.20;99.90;;;;;;5049350;28;19982;-63
2023/04/07 12:56:33;;;;;;;;;;;9.10;99.90;;;;;;5049743;28;19920;-64
2023/04/07 12:58:59;;;;;;;;;;;9.00;99.90;;;;;;5050080;28;19974;-70
2023/04/07 13:01:26;;;;;;;;;;;9.30;99.90;;;;;;5046005;28;20015;-64
2023/04/07 13:03:52;;;;;;;;;;;9.50;99.90;;;;;;5048040;28;19925;-63
2023/04/07 13:06:19;;;;;;;;;;;9.50;99.90;;;;;;5044306;28;19978;-63
2023/04/07 13:08:45;;;;;;;;;;;9.40;99.90;;;;;;5049846;28;20012;-61
2023/04/07 13:11:12;;;;;;;;;;;9.60;99.90;;;;;;5050604;28;20367;-64
2023/04/07 13:13:40;;;;;;;;;;;9.70;99.90;;;;;;5048711;28;19921;-63
2023/04/07 13:16:06;;;;;;;;;;;9.70;99.90;;;;;;5043418;28;19982;-64
2023/04/07 13:18:33;;;;;;;;;;;9.70;99.90;;;;;;5051235;28;19928;-64
2023/04/07 13:21:00;;;;;;;;;;;9.80;99.90;;;;;;5048904;28;19948;-64
2023/04/07 13:23:27;;;;;;;;;;;9.70;99.90;;;;;;5044884;28;20010;-65
2023/04/07 13:25:53;;;;;;;;;;;9.50;99.90;;;;;;5044210;28;19986;-64
2023/04/07 13:28:20;;;;;;;;;;;9.30;99.90;;;;;;5043577;28;19967;-59
2023/04/07 13:30:48;;;;;;;;;;;9.10;99.90;;;;;;5044709;28;20444;-57
2023/04/07 13:33:14;;;;;;;;;;;8.90;99.90;;;;;;5041882;28;19967;-64
2023/04/07 13:35:41;;;;;;;;;;;8.80;99.90;;;;;;5047465;28;20311;-65
2023/04/07 13:38:08;;;;;;;;;;;8.80;99.90;;;;;;5043889;28;19937;-65
2023/04/07 13:40:34;;;;;;;;;;;8.80;99.90;;;;;;5050605;28;20007;-62
2023/04/07 13:43:01;;;;;;;;;;;8.80;99.90;;;;;;5045050;28;20375;-63
2023/04/07 13:45:28;;;;;;;;;;;8.80;99.90;;;;;;5047110;28;19921;-64
2023/04/07 13:47:55;;;;;;;;;;;8.80;99.90;;;;;;5053952;28;20329;-64
2023/04/07 13:50:22;;;;;;;;;;;8.80;99.90;;;;;;5046480;28;19921;-64
2023/04/07 13:52:48;;;;;;;;;;;8.80;99.90;;;;;;5054697;28;20346;-60
2023/04/07 13:55:15;;;;;;;;;;;8.90;99.90;;;;;;5053422;28;19974;-61
2023/04/07 13:57:42;;;;;;;;;;;8.90;99.90;;;;;;5056061;28;19927;-58
2023/04/07 14:00:09;;;;;;;;;;;9.00;99.90;;;;;;5049428;28;19920;-56
2023/04/07 14:02:36;;;;;;;;;;;9.10;99.90;;;;;;5052072;28;19924;-61
2023/04/07 14:05:04;;;;;;;;;;;9.00;99.90;;;;;;5050896;28;19929;-61
2023/04/07 14:07:30;;;;;;;;;;;9.00;99.90;;;;;;5045626;28;19967;-63
2023/04/07 14:09:57;;;;;;;;;;;9.00;99.90;;;;;;5045068;28;19921;-63
2023/04/07 14:12:23;;;;;;;;;;;9.00;99.90;;;;;;5048832;28;20387;-62
2023/04/07 14:14:51;;;;;;;;;;;8.90;99.90;;;;;;5049396;28;19921;-61
2023/04/07 14:17:18;;;;;;;;;;;9.00;99.90;;;;;;5054602;28;19921;-60
2023/04/07 14:19:45;;;;;;;;;;;9.00;99.90;;;;;;5049465;28;19982;-58
2023/04/07 14:22:13;;;;;;;;;;;9.00;99.90;;;;;;5048776;28;20583;-58
2023/04/07 14:24:40;;;;;;;;;;;9.00;99.90;;;;;;5046467;28;19925;-60
2023/04/07 14:27:06;;;;;;;;;;;9.10;99.90;;;;;;5054413;28;19994;-60
2023/04/07 14:29:33;;;;;;;;;;;9.20;99.90;;;;;;5044249;28;19951;-61
2023/04/07 14:31:59;;;;;;;;;;;9.20;99.90;;;;;;5054504;28;19928;-60
2023/04/07 14:34:26;;;;;;;;;;;9.20;99.90;;;;;;5050553;28;19924;-61